createdAt,value
2019-01-16T00:00:32.943Z,993.64
2019-01-16T00:01:32.927Z,993.66
2019-01-16T00:02:32.927Z,993.62
2019-01-16T00:03:32.921Z,993.64
2019-01-16T00:04:32.910Z,993.62
2019-01-16T00:05:32.891Z,993.62
2019-01-16T00:06:32.883Z,993.61
2019-01-16T00:07:32.878Z,993.66
2019-01-16T00:08:32.864Z,993.61
2019-01-16T00:09:32.859Z,993.62
2019-01-16T00:10:32.852Z,993.6
2019-01-16T00:11:32.853Z,993.57
2019-01-16T00:12:32.838Z,993.58
2019-01-16T00:13:32.845Z,993.62
2019-01-16T00:14:32.814Z,993.59
2019-01-16T00:15:32.806Z,993.56
2019-01-16T00:16:32.799Z,993.57
2019-01-16T00:17:32.789Z,993.58
2019-01-16T00:18:32.784Z,993.58
2019-01-16T00:19:32.789Z,993.55
2019-01-16T00:20:32.768Z,993.57
2019-01-16T00:21:32.758Z,993.57
2019-01-16T00:22:32.747Z,993.52
2019-01-16T00:23:32.737Z,993.54
2019-01-16T00:24:32.737Z,993.51
2019-01-16T00:25:32.722Z,993.48
2019-01-16T00:26:32.726Z,993.51
2019-01-16T00:27:32.703Z,993.48
2019-01-16T00:28:32.700Z,993.48
2019-01-16T00:29:32.689Z,993.45
2019-01-16T00:30:32.677Z,993.44
2019-01-16T00:31:32.671Z,993.42
2019-01-16T00:32:32.663Z,993.41
2019-01-16T00:33:32.659Z,993.43
2019-01-16T00:34:32.645Z,993.42
2019-01-16T00:35:32.643Z,993.4
2019-01-16T00:36:32.632Z,993.37
2019-01-16T00:37:32.621Z,993.37
2019-01-16T00:38:32.619Z,993.38
2019-01-16T00:39:32.606Z,993.35
2019-01-16T00:40:32.612Z,993.36
2019-01-16T00:41:32.587Z,993.3
2019-01-16T00:42:32.578Z,993.28
2019-01-16T00:43:32.578Z,993.26
2019-01-16T00:44:32.569Z,993.26
2019-01-16T00:45:32.560Z,993.29
2019-01-16T00:46:32.554Z,993.31
2019-01-16T00:47:32.538Z,993.27
2019-01-16T00:48:32.528Z,993.23
2019-01-16T00:49:32.516Z,993.23
2019-01-16T00:50:32.509Z,993.26
2019-01-16T00:51:32.506Z,993.25
2019-01-16T00:52:32.491Z,993.22
2019-01-16T00:53:32.486Z,993.2
2019-01-16T00:54:32.483Z,993.17
2019-01-16T00:55:32.524Z,993.16
2019-01-16T00:56:32.459Z,993.15
2019-01-16T00:57:32.451Z,993.15
2019-01-16T00:58:32.441Z,993.12
2019-01-16T00:59:32.442Z,993.11
2019-01-16T01:00:32.430Z,993.12
2019-01-16T01:01:32.417Z,993.1
2019-01-16T01:02:32.410Z,993.15
2019-01-16T01:03:32.401Z,993.15
2019-01-16T01:04:32.395Z,993.12
2019-01-16T01:05:32.385Z,993.09
2019-01-16T01:06:32.379Z,993.1
2019-01-16T01:07:32.366Z,993.12
2019-01-16T01:08:32.359Z,993.06
2019-01-16T01:09:32.346Z,993.12
2019-01-16T01:10:32.359Z,993.14
2019-01-16T01:11:32.339Z,993.13
2019-01-16T01:12:32.324Z,993.12
2019-01-16T01:13:32.326Z,993.15
2019-01-16T01:14:32.363Z,993.13
2019-01-16T01:15:32.376Z,993.13
2019-01-16T01:16:32.287Z,993.13
2019-01-16T01:17:32.277Z,993.18
2019-01-16T01:18:32.623Z,993.08
2019-01-16T01:19:32.262Z,993.1
2019-01-16T01:20:32.254Z,993.11
2019-01-16T01:21:32.255Z,993.1
2019-01-16T01:22:32.236Z,993.12
2019-01-16T01:23:32.225Z,993.12
2019-01-16T01:24:32.220Z,993.06
2019-01-16T01:25:32.207Z,993.08
2019-01-16T01:26:32.201Z,993.13
2019-01-16T01:27:32.194Z,993.08
2019-01-16T01:28:32.185Z,993.05
2019-01-16T01:29:32.188Z,993.07
2019-01-16T01:30:32.166Z,993.07
2019-01-16T01:31:32.159Z,993.06
2019-01-16T01:32:32.156Z,993.08
2019-01-16T01:33:32.140Z,993.04
2019-01-16T01:34:32.382Z,993.05
2019-01-16T01:35:32.178Z,993.06
2019-01-16T01:36:32.125Z,993.11
2019-01-16T01:37:32.108Z,993.16
2019-01-16T01:38:32.099Z,993.13
2019-01-16T01:39:32.090Z,993.15
2019-01-16T01:40:32.079Z,993.13
2019-01-16T01:41:32.069Z,993.13
2019-01-16T01:42:32.065Z,993.14
2019-01-16T01:43:32.064Z,993.15
2019-01-16T01:44:32.048Z,993.16
2019-01-16T01:45:32.042Z,993.14
2019-01-16T01:46:32.030Z,993.11
2019-01-16T01:47:32.018Z,993.13
2019-01-16T01:48:32.010Z,993.14
2019-01-16T01:49:32.001Z,993.18
2019-01-16T01:50:31.994Z,993.17
2019-01-16T01:51:31.986Z,993.12
2019-01-16T01:52:31.996Z,993.14
2019-01-16T01:53:31.969Z,993.15
2019-01-16T01:54:31.961Z,993.13
2019-01-16T01:55:31.953Z,993.11
2019-01-16T01:56:31.946Z,993.12
2019-01-16T01:57:31.968Z,993.12
2019-01-16T01:58:31.934Z,993.13
2019-01-16T01:59:31.929Z,993.1
2019-01-16T02:00:31.912Z,993.06
2019-01-16T02:01:31.907Z,993.12
2019-01-16T02:02:31.897Z,993.09
2019-01-16T02:03:31.903Z,993.08
2019-01-16T02:04:31.874Z,993.08
2019-01-16T02:05:31.867Z,993.06
2019-01-16T02:06:31.859Z,993.05
2019-01-16T02:07:31.853Z,993.06
2019-01-16T02:08:31.841Z,993.04
2019-01-16T02:09:31.849Z,993.03
2019-01-16T02:10:31.822Z,993.05
2019-01-16T02:11:31.814Z,993.05
2019-01-16T02:12:31.807Z,992.99
2019-01-16T02:13:31.799Z,993.02
2019-01-16T02:14:31.788Z,992.99
2019-01-16T02:15:31.808Z,993.02
2019-01-16T02:16:31.773Z,993.02
2019-01-16T02:17:31.763Z,992.99
2019-01-16T02:18:31.760Z,992.98
2019-01-16T02:19:31.747Z,992.98
2019-01-16T02:20:31.738Z,992.92
2019-01-16T02:21:31.730Z,992.93
2019-01-16T02:22:31.722Z,992.91
2019-01-16T02:23:31.712Z,992.87
2019-01-16T02:24:31.704Z,992.86
2019-01-16T02:25:31.717Z,992.82
2019-01-16T02:26:31.694Z,992.81
2019-01-16T02:27:31.680Z,992.82
2019-01-16T02:28:31.672Z,992.79
2019-01-16T02:29:31.666Z,992.78
2019-01-16T02:30:31.651Z,992.76
2019-01-16T02:31:31.645Z,992.71
2019-01-16T02:32:31.635Z,992.74
2019-01-16T02:33:31.744Z,992.73
2019-01-16T02:34:31.623Z,992.7
2019-01-16T02:35:35.665Z,992.65
2019-01-16T02:36:31.603Z,992.64
2019-01-16T02:37:31.599Z,992.61
2019-01-16T02:38:31.584Z,992.63
2019-01-16T02:39:31.577Z,992.62
2019-01-16T02:40:31.566Z,992.66
2019-01-16T02:41:31.557Z,992.66
2019-01-16T02:42:31.549Z,992.68
2019-01-16T02:43:31.543Z,992.69
2019-01-16T02:44:31.533Z,992.68
2019-01-16T02:45:31.523Z,992.73
2019-01-16T02:46:31.522Z,992.76
2019-01-16T02:47:31.504Z,992.76
2019-01-16T02:48:31.529Z,992.73
2019-01-16T02:49:31.488Z,992.73
2019-01-16T02:50:31.492Z,992.66
2019-01-16T02:51:31.487Z,992.67
2019-01-16T02:52:31.478Z,992.64
2019-01-16T02:53:31.450Z,992.62
2019-01-16T02:54:31.450Z,992.59
2019-01-16T02:55:31.432Z,992.58
2019-01-16T02:56:31.423Z,992.57
2019-01-16T02:57:31.420Z,992.5
2019-01-16T02:58:31.404Z,992.49
2019-01-16T02:59:31.396Z,992.38
2019-01-16T03:00:31.396Z,992.38
2019-01-16T03:01:31.380Z,992.35
2019-01-16T03:02:31.371Z,992.37
2019-01-16T03:03:31.358Z,992.39
2019-01-16T03:04:31.351Z,992.37
2019-01-16T03:05:31.347Z,992.32
2019-01-16T03:06:31.333Z,992.32
2019-01-16T03:07:31.345Z,992.35
2019-01-16T03:08:31.313Z,992.33
2019-01-16T03:09:31.304Z,992.33
2019-01-16T03:10:31.292Z,992.35
2019-01-16T03:11:31.283Z,992.33
2019-01-16T03:12:31.275Z,992.3
2019-01-16T03:13:31.264Z,992.3
2019-01-16T03:14:31.256Z,992.28
2019-01-16T03:15:31.247Z,992.29
2019-01-16T03:16:31.237Z,992.27
2019-01-16T03:17:31.224Z,992.2
2019-01-16T03:18:31.219Z,992.21
2019-01-16T03:19:31.208Z,992.26
2019-01-16T03:20:31.196Z,992.24
2019-01-16T03:21:31.185Z,992.22
2019-01-16T03:22:31.177Z,992.25
2019-01-16T03:23:31.164Z,992.25
2019-01-16T03:24:31.158Z,992.23
2019-01-16T03:25:31.159Z,992.21
2019-01-16T03:26:31.137Z,992.28
2019-01-16T03:27:31.125Z,992.25
2019-01-16T03:28:31.116Z,992.25
2019-01-16T03:29:31.107Z,992.2
2019-01-16T03:30:31.099Z,992.19
2019-01-16T03:31:31.128Z,992.19
2019-01-16T03:32:31.082Z,992.15
2019-01-16T03:33:31.064Z,992.15
2019-01-16T03:34:31.060Z,992.13
2019-01-16T03:35:31.058Z,992.11
2019-01-16T03:36:31.042Z,992.15
2019-01-16T03:37:31.029Z,992.08
2019-01-16T03:38:31.015Z,992.09
2019-01-16T03:39:31.006Z,992.07
2019-01-16T03:40:30.995Z,992
2019-01-16T03:41:30.988Z,992.02
2019-01-16T03:42:30.974Z,991.98
2019-01-16T03:43:30.965Z,991.99
2019-01-16T03:44:30.954Z,992.01
2019-01-16T03:45:30.944Z,992.02
2019-01-16T03:46:30.935Z,991.97
2019-01-16T03:47:30.926Z,991.98
2019-01-16T03:48:30.920Z,991.95
2019-01-16T03:49:30.912Z,991.98
2019-01-16T03:50:30.895Z,991.96
2019-01-16T03:51:30.885Z,991.94
2019-01-16T03:52:30.874Z,991.91
2019-01-16T03:53:30.862Z,991.87
2019-01-16T03:54:30.854Z,991.87
2019-01-16T03:55:30.851Z,991.93
2019-01-16T03:56:30.834Z,991.85
2019-01-16T03:57:30.824Z,991.82
2019-01-16T03:58:30.813Z,991.8
2019-01-16T03:59:30.924Z,991.82
2019-01-16T04:00:30.792Z,991.79
2019-01-16T04:01:30.791Z,991.75
2019-01-16T04:02:30.774Z,991.69
2019-01-16T04:03:30.769Z,991.68
2019-01-16T04:04:30.756Z,991.71
2019-01-16T04:05:30.755Z,991.7
2019-01-16T04:06:31.534Z,991.67
2019-01-16T04:07:30.722Z,991.66
2019-01-16T04:08:30.713Z,991.69
2019-01-16T04:09:30.709Z,991.69
2019-01-16T04:10:30.694Z,991.67
2019-01-16T04:11:30.691Z,991.7
2019-01-16T04:12:30.683Z,991.67
2019-01-16T04:13:30.663Z,991.66
2019-01-16T04:14:30.652Z,991.65
2019-01-16T04:15:30.639Z,991.64
2019-01-16T04:16:30.628Z,991.65
2019-01-16T04:17:30.621Z,991.66
2019-01-16T04:18:30.617Z,991.59
2019-01-16T04:19:30.601Z,991.6
2019-01-16T04:20:30.593Z,991.54
2019-01-16T04:21:30.607Z,991.56
2019-01-16T04:22:30.584Z,991.54
2019-01-16T04:23:30.560Z,991.53
2019-01-16T04:24:30.550Z,991.5
2019-01-16T04:25:30.542Z,991.49
2019-01-16T04:26:30.534Z,991.52
2019-01-16T04:27:30.522Z,991.51
2019-01-16T04:28:30.525Z,991.5
2019-01-16T04:29:30.502Z,991.52
2019-01-16T04:30:30.492Z,991.52
2019-01-16T04:31:30.489Z,991.53
2019-01-16T04:32:30.469Z,991.47
2019-01-16T04:33:30.467Z,991.48
2019-01-16T04:34:30.450Z,991.48
2019-01-16T04:35:30.439Z,991.51
2019-01-16T04:36:30.435Z,991.52
2019-01-16T04:37:30.420Z,991.49
2019-01-16T04:38:30.414Z,991.48
2019-01-16T04:39:30.412Z,991.48
2019-01-16T04:40:30.394Z,991.45
2019-01-16T04:41:30.394Z,991.46
2019-01-16T04:42:30.386Z,991.42
2019-01-16T04:43:30.377Z,991.43
2019-01-16T04:44:30.354Z,991.42
2019-01-16T04:45:30.344Z,991.4
2019-01-16T04:46:30.339Z,991.38
2019-01-16T04:47:30.322Z,991.4
2019-01-16T04:48:30.310Z,991.4
2019-01-16T04:49:30.799Z,991.34
2019-01-16T04:50:30.296Z,991.31
2019-01-16T04:51:30.287Z,991.3
2019-01-16T04:52:30.271Z,991.33
2019-01-16T04:53:30.263Z,991.29
2019-01-16T04:54:30.269Z,991.31
2019-01-16T04:55:30.246Z,991.33
2019-01-16T04:56:30.245Z,991.33
2019-01-16T04:57:30.227Z,991.31
2019-01-16T04:58:30.216Z,991.29
2019-01-16T04:59:30.212Z,991.26
2019-01-16T05:00:30.201Z,991.23
2019-01-16T05:01:30.189Z,991.24
2019-01-16T05:02:30.175Z,991.24
2019-01-16T05:03:30.167Z,991.25
2019-01-16T05:04:30.154Z,991.3
2019-01-16T05:05:30.159Z,991.29
2019-01-16T05:06:30.144Z,991.24
2019-01-16T05:07:30.132Z,991.23
2019-01-16T05:08:30.116Z,991.2
2019-01-16T05:09:30.110Z,991.25
2019-01-16T05:10:30.109Z,991.23
2019-01-16T05:11:30.091Z,991.24
2019-01-16T05:12:30.088Z,991.22
2019-01-16T05:13:30.071Z,991.25
2019-01-16T05:14:30.060Z,991.24
2019-01-16T05:15:30.049Z,991.21
2019-01-16T05:16:30.057Z,991.18
2019-01-16T05:17:30.045Z,991.18
2019-01-16T05:18:30.022Z,991.14
2019-01-16T05:19:30.012Z,991.18
2019-01-16T05:20:30.005Z,991.14
2019-01-16T05:21:29.991Z,991.11
2019-01-16T05:22:29.980Z,991.08
2019-01-16T05:23:29.971Z,991.04
2019-01-16T05:24:29.967Z,991.05
2019-01-16T05:25:29.954Z,991
2019-01-16T05:26:29.946Z,991
2019-01-16T05:27:29.942Z,991
2019-01-16T05:28:29.938Z,991.01
2019-01-16T05:29:29.917Z,991.01
2019-01-16T05:30:29.904Z,991.03
2019-01-16T05:31:29.898Z,990.95
2019-01-16T05:32:29.900Z,990.93
2019-01-16T05:33:29.879Z,990.87
2019-01-16T05:34:29.863Z,990.92
2019-01-16T05:35:29.859Z,990.87
2019-01-16T05:36:29.850Z,990.89
2019-01-16T05:37:29.839Z,990.86
2019-01-16T05:38:29.841Z,990.85
2019-01-16T05:39:29.816Z,990.88
2019-01-16T05:40:29.811Z,990.82
2019-01-16T05:41:29.801Z,990.76
2019-01-16T05:42:29.826Z,990.75
2019-01-16T05:43:29.775Z,990.7
2019-01-16T05:44:29.778Z,990.69
2019-01-16T05:45:29.756Z,990.7
2019-01-16T05:46:29.746Z,990.76
2019-01-16T05:47:29.739Z,990.76
2019-01-16T05:48:29.723Z,990.78
2019-01-16T05:49:29.715Z,990.77
2019-01-16T05:50:29.711Z,990.85
2019-01-16T05:51:29.696Z,990.88
2019-01-16T05:52:29.686Z,990.96
2019-01-16T05:53:29.675Z,991.01
2019-01-16T05:54:29.665Z,991.03
2019-01-16T05:55:29.652Z,991.01
2019-01-16T05:56:29.644Z,990.96
2019-01-16T05:57:29.631Z,990.91
2019-01-16T05:58:29.625Z,990.93
2019-01-16T05:59:29.613Z,990.89
2019-01-16T06:00:29.618Z,990.9
2019-01-16T06:01:29.592Z,990.9
2019-01-16T06:02:29.584Z,990.84
2019-01-16T06:03:29.724Z,990.81
2019-01-16T06:04:29.575Z,990.85
2019-01-16T06:05:29.550Z,990.79
2019-01-16T06:06:29.542Z,990.8
2019-01-16T06:07:29.544Z,990.81
2019-01-16T06:08:29.524Z,990.83
2019-01-16T06:09:29.522Z,990.82
2019-01-16T06:10:29.501Z,990.91
2019-01-16T06:11:29.510Z,990.89
2019-01-16T06:12:29.479Z,990.91
2019-01-16T06:13:29.469Z,990.86
2019-01-16T06:14:29.459Z,990.84
2019-01-16T06:15:29.448Z,990.83
2019-01-16T06:16:29.442Z,990.85
2019-01-16T06:17:29.430Z,990.81
2019-01-16T06:18:29.420Z,990.82
2019-01-16T06:19:29.412Z,990.78
2019-01-16T06:20:29.396Z,990.85
2019-01-16T06:21:29.385Z,990.84
2019-01-16T06:22:30.451Z,990.83
2019-01-16T06:23:29.370Z,990.83
2019-01-16T06:24:29.354Z,990.8
2019-01-16T06:25:29.347Z,990.77
2019-01-16T06:26:29.336Z,990.78
2019-01-16T06:27:29.329Z,990.75
2019-01-16T06:28:29.315Z,990.76
2019-01-16T06:29:29.302Z,990.76
2019-01-16T06:30:29.295Z,990.75
2019-01-16T06:31:29.284Z,990.79
2019-01-16T06:32:29.281Z,990.78
2019-01-16T06:33:29.280Z,990.76
2019-01-16T06:34:29.253Z,990.73
2019-01-16T06:35:29.244Z,990.74
2019-01-16T06:36:29.237Z,990.7
2019-01-16T06:37:29.221Z,990.69
2019-01-16T06:38:29.217Z,990.75
2019-01-16T06:39:29.205Z,990.75
2019-01-16T06:40:29.199Z,990.73
2019-01-16T06:41:29.179Z,990.71
2019-01-16T06:42:29.167Z,990.73
2019-01-16T06:43:29.175Z,990.74
2019-01-16T06:44:30.758Z,990.7
2019-01-16T06:45:29.140Z,990.71
2019-01-16T06:46:29.126Z,990.7
2019-01-16T06:47:29.115Z,990.74
2019-01-16T06:48:29.111Z,990.71
2019-01-16T06:49:29.094Z,990.75
2019-01-16T06:50:29.095Z,990.73
2019-01-16T06:51:29.088Z,990.68
2019-01-16T06:52:29.062Z,990.71
2019-01-16T06:53:29.056Z,990.69
2019-01-16T06:54:29.042Z,990.7
2019-01-16T06:55:29.061Z,990.65
2019-01-16T06:56:29.027Z,990.66
2019-01-16T06:57:29.164Z,990.69
2019-01-16T06:58:29.000Z,990.66
2019-01-16T06:59:29.006Z,990.65
2019-01-16T07:00:28.979Z,990.59
2019-01-16T07:01:28.970Z,990.64
2019-01-16T07:02:28.960Z,990.62
2019-01-16T07:03:28.958Z,990.56
2019-01-16T07:04:28.938Z,990.59
2019-01-16T07:05:28.931Z,990.5
2019-01-16T07:06:28.933Z,990.47
2019-01-16T07:07:28.918Z,990.47
2019-01-16T07:08:28.894Z,990.44
2019-01-16T07:09:28.881Z,990.43
2019-01-16T07:10:28.873Z,990.44
2019-01-16T07:11:28.859Z,990.37
2019-01-16T07:12:29.652Z,990.41
2019-01-16T07:13:28.845Z,990.43
2019-01-16T07:14:28.828Z,990.44
2019-01-16T07:15:28.832Z,990.48
2019-01-16T07:16:28.806Z,990.48
2019-01-16T07:17:28.796Z,990.52
2019-01-16T07:18:28.791Z,990.5
2019-01-16T07:19:28.774Z,990.52
2019-01-16T07:20:28.760Z,990.54
2019-01-16T07:21:28.758Z,990.54
2019-01-16T07:22:28.745Z,990.54
2019-01-16T07:23:28.729Z,990.57
2019-01-16T07:24:28.722Z,990.55
2019-01-16T07:25:28.722Z,990.58
2019-01-16T07:26:28.697Z,990.56
2019-01-16T07:27:28.685Z,990.54
2019-01-16T07:28:28.677Z,990.58
2019-01-16T07:29:28.677Z,990.53
2019-01-16T07:30:28.653Z,990.55
2019-01-16T07:31:28.645Z,990.49
2019-01-16T07:32:28.638Z,990.45
2019-01-16T07:33:28.627Z,990.44
2019-01-16T07:34:28.613Z,990.41
2019-01-16T07:35:28.601Z,990.35
2019-01-16T07:36:28.594Z,990.32
2019-01-16T07:37:28.595Z,990.31
2019-01-16T07:38:28.574Z,990.33
2019-01-16T07:39:28.560Z,990.3
2019-01-16T07:40:28.548Z,990.31
2019-01-16T07:41:28.536Z,990.34
2019-01-16T07:42:28.543Z,990.36
2019-01-16T07:43:28.517Z,990.34
2019-01-16T07:44:28.510Z,990.3
2019-01-16T07:45:28.493Z,990.3
2019-01-16T07:46:28.484Z,990.27
2019-01-16T07:47:28.474Z,990.25
2019-01-16T07:48:28.473Z,990.21
2019-01-16T07:49:28.455Z,990.23
2019-01-16T07:50:28.453Z,990.24
2019-01-16T07:51:28.443Z,990.17
2019-01-16T07:52:28.422Z,990.15
2019-01-16T07:53:28.413Z,990.14
2019-01-16T07:54:28.402Z,990.12
2019-01-16T07:55:28.400Z,990.05
2019-01-16T07:56:28.383Z,990.07
2019-01-16T07:57:28.376Z,990.08
2019-01-16T07:58:28.363Z,990.11
2019-01-16T07:59:28.355Z,990.13
2019-01-16T08:00:28.340Z,990.17
2019-01-16T08:01:28.332Z,990.15
2019-01-16T08:02:28.320Z,990.12
2019-01-16T08:03:28.313Z,990.12
2019-01-16T08:04:28.305Z,990.12
2019-01-16T08:05:28.289Z,990.08
2019-01-16T08:06:28.280Z,990.12
2019-01-16T08:07:28.267Z,990.16
2019-01-16T08:08:28.262Z,990.16
2019-01-16T08:09:28.247Z,990.14
2019-01-16T08:10:28.244Z,990.17
2019-01-16T08:11:28.231Z,990.18
2019-01-16T08:12:28.230Z,990.2
2019-01-16T08:13:28.208Z,990.17
2019-01-16T08:14:28.198Z,990.16
2019-01-16T08:15:28.188Z,990.17
2019-01-16T08:16:28.178Z,990.26
2019-01-16T08:17:28.168Z,990.21
2019-01-16T08:18:28.157Z,990.18
2019-01-16T08:19:28.145Z,990.25
2019-01-16T08:20:28.145Z,990.2
2019-01-16T08:21:28.127Z,990.14
2019-01-16T08:22:28.118Z,990.17
2019-01-16T08:23:28.108Z,990.19
2019-01-16T08:24:28.097Z,990.18
2019-01-16T08:25:28.087Z,990.1
2019-01-16T08:26:28.074Z,990.18
2019-01-16T08:27:28.075Z,990.16
2019-01-16T08:28:28.067Z,990.15
2019-01-16T08:29:28.041Z,990.14
2019-01-16T08:30:28.029Z,990.18
2019-01-16T08:31:28.026Z,990.15
2019-01-16T08:32:28.021Z,990.12
2019-01-16T08:33:28.015Z,990.1
2019-01-16T08:34:28.018Z,990.06
2019-01-16T08:35:27.979Z,990.08
2019-01-16T08:36:27.968Z,990.08
2019-01-16T08:37:27.961Z,990.09
2019-01-16T08:38:27.953Z,990.07
2019-01-16T08:39:27.939Z,990.07
2019-01-16T08:40:27.928Z,990.05
2019-01-16T08:41:27.917Z,990.01
2019-01-16T08:42:27.919Z,990.01
2019-01-16T08:43:27.901Z,990.02
2019-01-16T08:44:27.883Z,989.99
2019-01-16T08:45:27.874Z,989.99
2019-01-16T08:46:27.862Z,990.02
2019-01-16T08:47:27.850Z,990.03
2019-01-16T08:48:27.846Z,990.02
2019-01-16T08:49:27.846Z,990.01
2019-01-16T08:50:32.392Z,990
2019-01-16T08:51:27.812Z,990
2019-01-16T08:52:27.798Z,990.03
2019-01-16T08:53:27.790Z,989.99
2019-01-16T08:54:27.797Z,989.96
2019-01-16T08:55:27.770Z,989.96
2019-01-16T08:56:27.756Z,989.95
2019-01-16T08:57:27.746Z,989.96
2019-01-16T08:58:27.734Z,989.95
2019-01-16T08:59:27.727Z,989.92
2019-01-16T09:00:27.715Z,989.9
2019-01-16T09:01:32.477Z,989.87
2019-01-16T09:02:27.695Z,989.86
2019-01-16T09:03:27.688Z,989.88
2019-01-16T09:04:27.675Z,989.92
2019-01-16T09:05:27.666Z,989.89
2019-01-16T09:06:27.655Z,989.9
2019-01-16T09:07:27.653Z,989.93
2019-01-16T09:08:27.641Z,989.88
2019-01-16T09:09:27.623Z,989.92
2019-01-16T09:10:27.614Z,989.96
2019-01-16T09:11:27.618Z,989.94
2019-01-16T09:12:27.595Z,989.94
2019-01-16T09:13:27.591Z,990
2019-01-16T09:14:27.575Z,989.95
2019-01-16T09:15:34.528Z,989.97
2019-01-16T09:16:27.560Z,989.94
2019-01-16T09:17:27.547Z,989.9
2019-01-16T09:18:27.544Z,989.88
2019-01-16T09:19:27.526Z,989.89
2019-01-16T09:20:27.524Z,989.92
2019-01-16T09:21:27.530Z,989.91
2019-01-16T09:22:27.497Z,989.9
2019-01-16T09:23:27.491Z,989.93
2019-01-16T09:24:27.480Z,989.88
2019-01-16T09:25:27.470Z,989.88
2019-01-16T09:26:27.460Z,989.9
2019-01-16T09:27:27.449Z,989.88
2019-01-16T09:28:27.442Z,989.87
2019-01-16T09:29:27.435Z,989.87
2019-01-16T09:30:27.433Z,989.85
2019-01-16T09:31:27.416Z,989.82
2019-01-16T09:32:27.405Z,989.79
2019-01-16T09:33:27.395Z,989.77
2019-01-16T09:34:27.397Z,989.65
2019-01-16T09:35:27.379Z,989.67
2019-01-16T09:36:27.373Z,989.69
2019-01-16T09:37:27.360Z,989.67
2019-01-16T09:38:27.372Z,989.66
2019-01-16T09:39:27.342Z,989.65
2019-01-16T09:40:27.331Z,989.67
2019-01-16T09:41:27.323Z,989.63
2019-01-16T09:42:27.313Z,989.64
2019-01-16T09:43:27.305Z,989.65
2019-01-16T09:44:27.295Z,989.61
2019-01-16T09:45:27.287Z,989.65
2019-01-16T09:46:27.278Z,989.63
2019-01-16T09:47:28.773Z,989.64
2019-01-16T09:48:27.261Z,989.63
2019-01-16T09:49:27.258Z,989.57
2019-01-16T09:50:27.245Z,989.53
2019-01-16T09:51:27.232Z,989.52
2019-01-16T09:52:27.227Z,989.51
2019-01-16T09:53:27.214Z,989.53
2019-01-16T09:54:27.204Z,989.5
2019-01-16T09:55:27.198Z,989.47
2019-01-16T09:56:27.187Z,989.41
2019-01-16T09:57:27.176Z,989.42
2019-01-16T09:58:27.171Z,989.42
2019-01-16T09:59:27.173Z,989.39
2019-01-16T10:00:27.161Z,989.39
2019-01-16T10:01:27.166Z,989.4
2019-01-16T10:02:27.146Z,989.35
2019-01-16T10:03:27.126Z,989.38
2019-01-16T10:04:27.115Z,989.35
2019-01-16T10:05:27.112Z,989.38
2019-01-16T10:06:27.112Z,989.33
2019-01-16T10:07:27.114Z,989.26
2019-01-16T10:08:27.078Z,989.23
2019-01-16T10:09:27.080Z,989.21
2019-01-16T10:10:27.065Z,989.18
2019-01-16T10:11:27.057Z,989.16
2019-01-16T10:12:27.047Z,989.11
2019-01-16T10:13:27.044Z,989.06
2019-01-16T10:14:27.040Z,989.08
2019-01-16T10:15:27.033Z,989.07
2019-01-16T10:16:27.010Z,989.08
2019-01-16T10:17:27.004Z,989.15
2019-01-16T10:18:26.990Z,989.06
2019-01-16T10:19:26.980Z,989.08
2019-01-16T10:20:26.974Z,989
2019-01-16T10:21:26.968Z,989.05
2019-01-16T10:22:26.954Z,989.06
2019-01-16T10:23:26.951Z,989.01
2019-01-16T10:24:26.939Z,989.01
2019-01-16T10:25:26.928Z,989
2019-01-16T10:26:26.928Z,988.96
2019-01-16T10:27:26.912Z,988.9
2019-01-16T10:28:26.902Z,988.89
2019-01-16T10:29:26.901Z,988.88
2019-01-16T10:30:26.895Z,988.89
2019-01-16T10:31:26.877Z,988.87
2019-01-16T10:32:26.879Z,988.79
2019-01-16T10:33:26.874Z,988.85
2019-01-16T10:34:26.849Z,988.83
2019-01-16T10:35:26.836Z,988.86
2019-01-16T10:36:26.829Z,988.89
2019-01-16T10:37:26.817Z,988.87
2019-01-16T10:38:26.823Z,988.84
2019-01-16T10:39:26.803Z,988.87
2019-01-16T10:40:26.792Z,988.85
2019-01-16T10:41:26.786Z,988.88
2019-01-16T10:42:26.783Z,988.82
2019-01-16T10:43:26.768Z,988.82
2019-01-16T10:44:26.793Z,988.77
2019-01-16T10:45:26.750Z,988.74
2019-01-16T10:46:26.758Z,988.69
2019-01-16T10:47:26.742Z,988.72
2019-01-16T10:48:26.727Z,988.71
2019-01-16T10:49:26.717Z,988.67
2019-01-16T10:50:26.713Z,988.65
2019-01-16T10:51:26.706Z,988.68
2019-01-16T10:52:26.698Z,988.61
2019-01-16T10:53:26.690Z,988.63
2019-01-16T10:54:26.683Z,988.59
2019-01-16T10:55:26.672Z,988.59
2019-01-16T10:56:26.665Z,988.56
2019-01-16T10:57:26.948Z,988.5
2019-01-16T10:58:26.671Z,988.53
2019-01-16T10:59:26.641Z,988.55
2019-01-16T11:00:26.633Z,988.55
2019-01-16T11:01:26.635Z,988.53
2019-01-16T11:02:26.635Z,988.54
2019-01-16T11:03:26.613Z,988.55
2019-01-16T11:04:26.605Z,988.51
2019-01-16T11:05:26.603Z,988.54
2019-01-16T11:06:26.590Z,988.48
2019-01-16T11:07:26.594Z,988.45
2019-01-16T11:08:26.580Z,988.44
2019-01-16T11:09:26.589Z,988.36
2019-01-16T11:10:26.561Z,988.35
2019-01-16T11:11:26.552Z,988.27
2019-01-16T11:12:26.546Z,988.25
2019-01-16T11:13:26.595Z,988.25
2019-01-16T11:14:26.538Z,988.24
2019-01-16T11:15:26.543Z,988.2
2019-01-16T11:16:26.522Z,988.23
2019-01-16T11:17:26.512Z,988.19
2019-01-16T11:18:26.516Z,988.21
2019-01-16T11:19:26.497Z,988.13
2019-01-16T11:20:26.491Z,988.13
2019-01-16T11:21:26.490Z,988.11
2019-01-16T11:22:26.476Z,988.08
2019-01-16T11:23:26.471Z,988.05
2019-01-16T11:24:26.464Z,988.08
2019-01-16T11:25:26.453Z,988.04
2019-01-16T11:26:26.448Z,988.02
2019-01-16T11:27:26.443Z,988.02
2019-01-16T11:28:26.435Z,988.01
2019-01-16T11:29:26.431Z,988.03
2019-01-16T11:30:26.422Z,987.97
2019-01-16T11:31:26.417Z,987.94
2019-01-16T11:32:26.408Z,987.94
2019-01-16T11:33:26.399Z,987.97
2019-01-16T11:34:26.395Z,987.9
2019-01-16T11:35:26.401Z,987.92
2019-01-16T11:36:26.384Z,987.88
2019-01-16T11:37:26.376Z,987.83
2019-01-16T11:38:26.379Z,987.8
2019-01-16T11:39:26.377Z,987.82
2019-01-16T11:40:26.379Z,987.79
2019-01-16T11:41:26.348Z,987.82
2019-01-16T11:42:26.341Z,987.83
2019-01-16T11:43:26.342Z,987.76
2019-01-16T11:44:26.327Z,987.74
2019-01-16T11:45:26.331Z,987.73
2019-01-16T11:46:26.332Z,987.7
2019-01-16T11:47:26.323Z,987.72
2019-01-16T11:48:26.313Z,987.71
2019-01-16T11:49:26.323Z,987.71
2019-01-16T11:50:26.288Z,987.61
2019-01-16T11:51:33.515Z,987.64
2019-01-16T11:52:26.280Z,987.64
2019-01-16T11:53:26.273Z,987.59
2019-01-16T11:54:26.261Z,987.54
2019-01-16T11:55:26.258Z,987.56
2019-01-16T11:56:26.251Z,987.51
2019-01-16T11:57:26.243Z,987.49
2019-01-16T11:58:26.244Z,987.5
2019-01-16T11:59:26.241Z,987.49
2019-01-16T12:00:26.224Z,987.44
2019-01-16T12:01:26.216Z,987.42
2019-01-16T12:02:26.213Z,987.47
2019-01-16T12:03:26.205Z,987.44
2019-01-16T12:04:26.203Z,987.42
2019-01-16T12:05:26.197Z,987.39
2019-01-16T12:06:26.187Z,987.35
2019-01-16T12:07:26.180Z,987.34
2019-01-16T12:08:26.172Z,987.36
2019-01-16T12:09:26.178Z,987.3
2019-01-16T12:10:26.161Z,987.31
2019-01-16T12:11:26.155Z,987.25
2019-01-16T12:12:26.149Z,987.23
2019-01-16T12:13:26.138Z,987.24
2019-01-16T12:14:26.136Z,987.23
2019-01-16T12:15:26.129Z,987.19
2019-01-16T12:16:26.121Z,987.15
2019-01-16T12:17:26.113Z,987.13
2019-01-16T12:18:26.110Z,987.1
2019-01-16T12:19:26.102Z,987.06
2019-01-16T12:20:26.094Z,987.02
2019-01-16T12:21:26.625Z,987.01
2019-01-16T12:22:26.091Z,986.98
2019-01-16T12:23:26.081Z,986.97
2019-01-16T12:24:26.080Z,986.98
2019-01-16T12:25:26.066Z,986.96
2019-01-16T12:26:26.066Z,986.95
2019-01-16T12:27:26.051Z,986.93
2019-01-16T12:28:26.051Z,986.91
2019-01-16T12:29:26.041Z,986.88
2019-01-16T12:30:26.034Z,986.83
2019-01-16T12:31:26.032Z,986.85